createdAt,value
2018-06-29T00:00:51.868Z,21.30
2018-06-29T00:03:20.308Z,21.20
2018-06-29T00:05:48.830Z,21.20
2018-06-29T00:08:17.286Z,21.20
2018-06-29T00:10:45.728Z,21.20
2018-06-29T00:13:14.282Z,21.20
2018-06-29T00:15:42.730Z,21.10
2018-06-29T00:18:11.220Z,21.10
2018-06-29T00:20:39.721Z,21.00
2018-06-29T00:23:08.164Z,21.00
2018-06-29T00:25:36.612Z,21.00
2018-06-29T00:28:05.312Z,21.00
2018-06-29T00:30:33.819Z,21.00
2018-06-29T00:33:02.250Z,21.00
2018-06-29T00:35:30.736Z,21.00
2018-06-29T00:37:59.188Z,21.00
2018-06-29T00:40:27.750Z,20.90
2018-06-29T00:42:56.192Z,20.90
2018-06-29T00:45:24.612Z,20.90
2018-06-29T00:47:53.367Z,20.80
2018-06-29T00:50:24.098Z,20.80
2018-06-29T00:52:53.788Z,20.90
2018-06-29T00:55:22.299Z,20.80
2018-06-29T00:57:50.737Z,20.80
2018-06-29T01:00:19.169Z,20.80
2018-06-29T01:02:47.851Z,20.80
2018-06-29T01:05:16.280Z,20.80
2018-06-29T01:07:44.794Z,20.80
2018-06-29T01:10:13.393Z,20.80
2018-06-29T01:12:42.126Z,20.80
2018-06-29T01:15:10.557Z,20.80
2018-06-29T01:17:39.021Z,20.80
2018-06-29T01:20:07.745Z,20.80
2018-06-29T01:22:36.217Z,20.80
2018-06-29T01:25:04.689Z,20.80
2018-06-29T01:27:33.099Z,20.80
2018-06-29T01:30:01.547Z,20.70
2018-06-29T01:32:29.981Z,20.80
2018-06-29T01:34:58.400Z,20.80
2018-06-29T01:37:26.866Z,20.70
2018-06-29T01:39:55.443Z,20.70
2018-06-29T01:42:23.887Z,20.80
2018-06-29T01:44:52.323Z,20.80
2018-06-29T01:47:20.767Z,20.80
2018-06-29T01:49:50.015Z,20.80
2018-06-29T01:52:18.658Z,20.80
2018-06-29T01:54:47.082Z,20.80
2018-06-29T01:57:17.149Z,20.80
2018-06-29T01:59:45.791Z,20.80
2018-06-29T02:02:14.321Z,20.80
2018-06-29T02:04:42.801Z,20.80
2018-06-29T02:07:11.299Z,20.80
2018-06-29T02:09:39.885Z,20.80
2018-06-29T02:12:10.296Z,20.80
2018-06-29T02:14:38.721Z,20.80
2018-06-29T02:17:07.263Z,20.80
2018-06-29T02:19:35.776Z,20.80
2018-06-29T02:22:04.356Z,20.80
2018-06-29T02:24:32.782Z,20.80
2018-06-29T02:27:01.338Z,20.80
2018-06-29T02:29:29.902Z,20.80
2018-06-29T02:31:58.358Z,20.70
2018-06-29T02:34:26.772Z,20.70
2018-06-29T02:36:55.204Z,20.60
2018-06-29T02:39:23.660Z,20.50
2018-06-29T02:41:52.144Z,20.50
2018-06-29T02:44:20.646Z,20.60
2018-06-29T02:46:49.103Z,20.50
2018-06-29T02:49:17.580Z,20.50
2018-06-29T02:51:46.028Z,20.50
2018-06-29T02:54:14.469Z,20.40
2018-06-29T02:56:42.889Z,20.40
2018-06-29T02:59:11.365Z,20.40
2018-06-29T03:01:39.833Z,20.40
2018-06-29T03:04:08.271Z,20.40
2018-06-29T03:06:36.650Z,20.40
2018-06-29T03:09:07.502Z,20.40
2018-06-29T03:11:35.984Z,20.40
2018-06-29T03:14:04.471Z,20.40
2018-06-29T03:16:32.928Z,20.30
2018-06-29T03:19:01.377Z,20.30
2018-06-29T03:21:29.932Z,20.30
2018-06-29T03:23:58.402Z,20.30
2018-06-29T03:26:26.906Z,20.30
2018-06-29T03:28:55.846Z,20.30
2018-06-29T03:31:24.808Z,20.20
2018-06-29T03:33:53.264Z,20.20
2018-06-29T03:36:21.719Z,20.20
2018-06-29T03:38:50.147Z,20.20
2018-06-29T03:41:18.558Z,20.20
2018-06-29T03:43:47.005Z,20.20
2018-06-29T03:46:15.487Z,20.20
2018-06-29T03:48:44.023Z,20.20
2018-06-29T03:51:12.525Z,20.10
2018-06-29T03:53:41.021Z,20.00
2018-06-29T03:56:09.581Z,19.80
2018-06-29T03:58:38.003Z,19.80
2018-06-29T04:01:07.593Z,19.90
2018-06-29T04:03:36.119Z,20.10
2018-06-29T04:06:04.640Z,20.20
2018-06-29T04:08:33.111Z,20.40
2018-06-29T04:11:01.650Z,20.50
2018-06-29T04:13:30.211Z,20.60
2018-06-29T04:15:58.631Z,20.80
2018-06-29T04:18:27.108Z,20.90
2018-06-29T04:20:55.538Z,21.00
2018-06-29T04:23:24.066Z,21.10
2018-06-29T04:25:52.524Z,21.20
2018-06-29T04:28:20.968Z,21.20
2018-06-29T04:30:49.384Z,21.40
2018-06-29T04:33:17.864Z,21.50
2018-06-29T04:35:46.294Z,21.60
2018-06-29T04:38:14.726Z,21.70
2018-06-29T04:40:43.330Z,21.90
2018-06-29T04:43:11.812Z,22.10
2018-06-29T04:45:40.282Z,22.20
2018-06-29T04:48:08.702Z,22.40
2018-06-29T04:50:38.007Z,22.70
2018-06-29T04:53:06.414Z,23.00
2018-06-29T04:55:34.840Z,23.20
2018-06-29T04:58:03.328Z,23.50
2018-06-29T05:00:31.972Z,23.60
2018-06-29T05:03:00.342Z,23.80
2018-06-29T05:05:28.928Z,23.90
2018-06-29T05:07:57.468Z,24.00
2018-06-29T05:10:25.861Z,24.00
2018-06-29T05:12:54.282Z,24.00
2018-06-29T05:15:22.796Z,24.00
2018-06-29T05:17:51.488Z,24.10
2018-06-29T05:20:19.984Z,24.10
2018-06-29T05:22:48.360Z,24.40
2018-06-29T05:25:16.811Z,24.40
2018-06-29T05:27:45.307Z,24.40
2018-06-29T05:30:13.803Z,24.50
2018-06-29T05:32:42.269Z,24.60
2018-06-29T05:35:10.710Z,24.70
2018-06-29T05:37:39.140Z,24.80
2018-06-29T05:40:07.757Z,24.90
2018-06-29T05:42:37.244Z,25.00
2018-06-29T05:45:06.006Z,25.00
2018-06-29T05:47:34.463Z,24.90
2018-06-29T05:50:02.916Z,25.00
2018-06-29T05:52:31.456Z,25.20
2018-06-29T05:55:00.123Z,25.40
2018-06-29T05:57:28.653Z,25.50
2018-06-29T05:59:57.354Z,25.70
2018-06-29T06:02:25.870Z,25.70
2018-06-29T06:04:54.325Z,26.10
2018-06-29T06:07:23.358Z,26.30
2018-06-29T06:09:51.813Z,26.40
2018-06-29T06:12:20.332Z,26.50
2018-06-29T06:14:48.794Z,26.50
2018-06-29T06:17:17.188Z,26.80
2018-06-29T06:19:56.925Z,26.80
2018-06-29T06:22:25.367Z,27.00
2018-06-29T06:24:53.893Z,27.00
2018-06-29T06:27:22.299Z,27.30
2018-06-29T06:29:50.731Z,27.80
2018-06-29T06:32:19.209Z,27.60
2018-06-29T06:34:47.647Z,27.60
2018-06-29T06:37:16.159Z,27.40
2018-06-29T06:39:44.599Z,27.20
2018-06-29T06:42:13.098Z,27.30
2018-06-29T06:44:41.596Z,27.50
2018-06-29T06:47:11.820Z,27.70
2018-06-29T06:49:40.262Z,27.70
2018-06-29T06:52:09.759Z,27.90
2018-06-29T06:54:38.163Z,28.50
2018-06-29T06:57:06.862Z,28.60
2018-06-29T06:59:35.368Z,28.70
2018-06-29T07:02:03.862Z,29.00
2018-06-29T07:04:32.680Z,28.90
2018-06-29T07:07:01.338Z,29.30
2018-06-29T07:09:29.818Z,29.20
2018-06-29T07:11:58.271Z,29.20
2018-06-29T07:14:26.754Z,29.50
2018-06-29T07:16:55.250Z,29.30
2018-06-29T07:19:23.695Z,29.10
2018-06-29T07:21:52.119Z,29.10
2018-06-29T07:24:20.594Z,29.00
2018-06-29T07:26:49.060Z,29.50
2018-06-29T07:29:17.602Z,29.90
2018-06-29T07:31:46.146Z,30.10
2018-06-29T07:34:14.602Z,30.40
2018-06-29T07:36:43.073Z,30.40
2018-06-29T07:39:11.566Z,30.00
2018-06-29T07:44:08.310Z,29.70
2018-06-29T07:46:36.879Z,29.40
2018-06-29T07:49:05.275Z,29.10
2018-06-29T07:51:33.755Z,28.80
2018-06-29T07:54:02.300Z,28.80
2018-06-29T07:56:30.935Z,28.60
2018-06-29T07:58:59.547Z,28.40
2018-06-29T08:01:27.999Z,28.40
2018-06-29T08:03:56.602Z,28.50
2018-06-29T08:06:26.371Z,28.70
2018-06-29T08:08:54.794Z,29.00
2018-06-29T08:11:23.336Z,29.00
2018-06-29T08:13:51.884Z,29.00
2018-06-29T08:16:20.425Z,28.80
2018-06-29T08:18:49.681Z,28.60
2018-06-29T08:21:18.126Z,28.40
2018-06-29T08:23:46.552Z,28.60
2018-06-29T08:26:26.456Z,28.70
2018-06-29T08:28:55.071Z,28.90
2018-06-29T08:31:23.626Z,29.00
2018-06-29T08:33:52.246Z,28.90
2018-06-29T08:36:20.764Z,29.20
2018-06-29T08:38:49.312Z,29.50
2018-06-29T08:41:17.868Z,29.70
2018-06-29T08:43:47.369Z,29.70
2018-06-29T08:46:15.932Z,29.50
2018-06-29T08:48:44.434Z,29.20
2018-06-29T08:51:12.935Z,29.20
2018-06-29T08:53:41.377Z,29.30
2018-06-29T08:56:09.835Z,29.40
2018-06-29T08:58:38.260Z,29.40
2018-06-29T09:01:06.727Z,29.60
2018-06-29T09:03:35.139Z,29.20
2018-06-29T09:06:03.808Z,28.90
2018-06-29T09:08:32.428Z,28.80
2018-06-29T09:11:01.113Z,28.70
2018-06-29T09:13:29.592Z,29.20
2018-06-29T09:15:58.039Z,29.40
2018-06-29T09:18:26.532Z,29.60
2018-06-29T09:20:55.100Z,29.50
2018-06-29T09:23:23.750Z,29.40
2018-06-29T09:25:52.249Z,29.60
2018-06-29T09:28:20.668Z,29.70
2018-06-29T09:30:49.147Z,29.40
2018-06-29T09:33:17.668Z,29.10
2018-06-29T09:35:46.105Z,28.90
2018-06-29T09:38:14.685Z,28.90
2018-06-29T09:40:43.180Z,29.20
2018-06-29T09:43:11.663Z,29.10
2018-06-29T09:45:40.141Z,29.40
2018-06-29T09:48:08.829Z,29.80
2018-06-29T09:50:37.113Z,29.80
2018-06-29T09:53:05.905Z,29.80
2018-06-29T09:55:34.461Z,30.00
2018-06-29T09:58:02.901Z,30.10
2018-06-29T10:00:32.767Z,29.80
2018-06-29T10:03:01.559Z,30.00
2018-06-29T10:05:30.349Z,30.00
2018-06-29T10:07:58.826Z,29.60
2018-06-29T10:10:27.439Z,29.60
2018-06-29T10:12:56.029Z,29.70
2018-06-29T10:15:24.465Z,29.90
2018-06-29T10:17:52.897Z,29.80
2018-06-29T10:20:21.623Z,30.10
2018-06-29T10:22:50.144Z,30.40
2018-06-29T10:25:18.724Z,30.50
2018-06-29T10:27:47.189Z,30.20
2018-06-29T10:30:15.752Z,29.90
2018-06-29T10:35:12.341Z,29.30
2018-06-29T10:37:41.188Z,29.50
2018-06-29T10:40:09.661Z,30.10
2018-06-29T10:42:38.205Z,30.50
2018-06-29T10:45:06.783Z,30.50
2018-06-29T10:47:35.191Z,30.20
2018-06-29T10:50:03.845Z,29.90
2018-06-29T10:52:32.304Z,30.00
2018-06-29T10:55:00.927Z,30.30
2018-06-29T10:57:29.402Z,30.30
2018-06-29T10:59:57.841Z,30.10
2018-06-29T11:02:26.346Z,29.90
2018-06-29T11:04:54.857Z,29.80
2018-06-29T11:07:23.438Z,29.60
2018-06-29T11:09:51.911Z,29.80
2018-06-29T11:12:20.399Z,29.90
2018-06-29T11:14:48.863Z,30.10
2018-06-29T11:17:17.319Z,29.90
2018-06-29T11:19:46.419Z,29.90
2018-06-29T11:22:14.811Z,29.90
2018-06-29T11:24:43.306Z,29.90
2018-06-29T11:27:11.873Z,29.80
2018-06-29T11:29:40.355Z,29.70
2018-06-29T11:32:09.007Z,29.70
2018-06-29T11:34:37.783Z,29.60
2018-06-29T11:37:06.324Z,29.70
2018-06-29T11:39:34.766Z,29.50
2018-06-29T11:42:03.243Z,29.10
2018-06-29T11:44:31.661Z,28.90
2018-06-29T11:47:00.084Z,29.00
2018-06-29T11:49:28.620Z,29.10
2018-06-29T11:51:57.078Z,29.10
2018-06-29T11:54:25.507Z,28.90
2018-06-29T11:56:54.012Z,28.80
2018-06-29T11:59:22.448Z,28.80
2018-06-29T12:01:50.949Z,28.80
2018-06-29T12:04:19.398Z,28.90
2018-06-29T12:06:47.864Z,28.90
2018-06-29T12:09:16.409Z,28.70
2018-06-29T12:11:47.001Z,28.90
2018-06-29T12:14:15.568Z,28.80
2018-06-29T12:16:44.112Z,28.60
2018-06-29T12:19:12.504Z,28.50
2018-06-29T12:21:40.943Z,28.50
2018-06-29T12:24:09.721Z,28.50
2018-06-29T12:26:38.195Z,28.60
2018-06-29T12:29:06.768Z,28.80
2018-06-29T12:31:35.316Z,29.00
2018-06-29T12:34:03.903Z,28.80
2018-06-29T12:36:32.370Z,28.60
2018-06-29T12:39:00.908Z,28.60
2018-06-29T12:41:29.515Z,28.50
2018-06-29T12:43:58.066Z,28.50
2018-06-29T12:46:26.644Z,28.70
2018-06-29T12:48:55.138Z,28.70
2018-06-29T12:51:23.820Z,28.60
2018-06-29T12:53:52.276Z,28.40
2018-06-29T12:56:20.876Z,28.20
2018-06-29T12:58:50.416Z,28.30
2018-06-29T13:01:18.924Z,28.30
2018-06-29T13:03:47.394Z,28.40
2018-06-29T13:06:15.856Z,28.40
2018-06-29T13:08:44.285Z,28.40
2018-06-29T13:11:12.760Z,28.30
2018-06-29T13:13:41.164Z,28.40
2018-06-29T13:16:10.532Z,28.30
2018-06-29T13:18:39.079Z,28.20
2018-06-29T13:21:07.530Z,28.30
2018-06-29T13:23:36.152Z,28.30
2018-06-29T13:26:07.124Z,28.40
2018-06-29T13:28:35.616Z,28.40
2018-06-29T13:31:04.293Z,28.40
2018-06-29T13:33:32.972Z,28.60
2018-06-29T13:36:01.565Z,28.40
2018-06-29T13:38:30.373Z,28.40
2018-06-29T13:40:59.064Z,28.30
2018-06-29T13:43:30.975Z,28.30
2018-06-29T13:45:59.582Z,28.40
2018-06-29T13:48:28.366Z,28.40
2018-06-29T13:50:56.988Z,28.50
2018-06-29T13:53:25.504Z,28.40
2018-06-29T13:55:54.017Z,28.40
2018-06-29T13:58:22.689Z,28.40
2018-06-29T14:00:51.283Z,28.50
2018-06-29T14:03:19.885Z,28.40
2018-06-29T14:05:48.297Z,28.50
2018-06-29T14:08:16.793Z,28.50
2018-06-29T14:10:45.279Z,28.50
2018-06-29T14:13:13.717Z,28.60
2018-06-29T14:15:46.418Z,28.40
2018-06-29T14:18:15.025Z,28.50
2018-06-29T14:20:50.064Z,28.60
2018-06-29T14:23:18.858Z,28.50
2018-06-29T14:25:48.515Z,28.50
2018-06-29T14:28:17.108Z,28.50
2018-06-29T14:30:47.173Z,28.50
2018-06-29T14:33:15.812Z,28.60
2018-06-29T14:35:44.296Z,28.60
2018-06-29T14:38:12.940Z,28.60
2018-06-29T14:40:42.433Z,28.50
2018-06-29T14:43:10.855Z,28.60
2018-06-29T14:45:39.384Z,28.60
2018-06-29T14:48:07.978Z,28.60
2018-06-29T14:50:36.529Z,28.60
2018-06-29T14:53:05.094Z,28.60
2018-06-29T14:55:33.558Z,28.60
2018-06-29T14:58:01.965Z,28.60
2018-06-29T15:00:30.447Z,28.60
2018-06-29T15:02:59.147Z,28.60
2018-06-29T15:05:27.644Z,28.40
2018-06-29T15:07:56.137Z,28.50
2018-06-29T15:10:24.602Z,28.60
2018-06-29T15:12:53.039Z,28.50
2018-06-29T15:15:25.187Z,28.50
2018-06-29T15:17:53.634Z,28.60
2018-06-29T15:20:22.045Z,28.70
2018-06-29T15:22:50.475Z,28.60
2018-06-29T15:25:18.937Z,28.60
2018-06-29T15:27:47.368Z,28.60
2018-06-29T15:30:15.895Z,28.50
2018-06-29T15:32:44.373Z,28.50
2018-06-29T15:35:12.907Z,28.60
2018-06-29T15:37:41.323Z,28.50
2018-06-29T15:40:09.747Z,28.50
2018-06-29T15:42:38.211Z,28.50
2018-06-29T15:45:07.135Z,28.60
2018-06-29T15:47:35.591Z,28.60
2018-06-29T15:50:04.459Z,28.60
2018-06-29T15:52:32.883Z,28.60
2018-06-29T15:55:01.320Z,28.60
2018-06-29T15:57:29.732Z,28.60
2018-06-29T15:59:58.197Z,28.50
2018-06-29T16:02:30.495Z,28.50
2018-06-29T16:04:59.184Z,28.50
2018-06-29T16:07:28.527Z,28.60
2018-06-29T16:09:56.991Z,28.50
2018-06-29T16:12:25.390Z,28.50
2018-06-29T16:14:53.864Z,28.50
2018-06-29T16:17:22.404Z,28.40
2018-06-29T16:19:50.853Z,28.40
2018-06-29T16:22:19.468Z,28.40
2018-06-29T16:24:47.964Z,28.40
2018-06-29T16:27:16.447Z,28.40
2018-06-29T16:29:45.044Z,28.50
2018-06-29T16:32:13.486Z,28.50
2018-06-29T16:34:42.067Z,28.50
2018-06-29T16:37:10.448Z,28.50
2018-06-29T16:39:39.336Z,28.40
2018-06-29T16:42:07.874Z,28.40
2018-06-29T16:44:36.384Z,28.40
2018-06-29T16:47:06.863Z,28.40
2018-06-29T16:49:35.309Z,28.40
2018-06-29T16:52:03.807Z,28.40
2018-06-29T16:54:32.261Z,28.40
2018-06-29T16:57:00.831Z,28.40
2018-06-29T16:59:29.290Z,28.40
2018-06-29T17:01:57.806Z,28.30
2018-06-29T17:04:26.234Z,28.30
2018-06-29T17:06:54.840Z,28.30
2018-06-29T17:09:23.634Z,28.40
2018-06-29T17:11:52.115Z,28.30
2018-06-29T17:14:20.599Z,28.20
2018-06-29T17:16:49.014Z,28.20
2018-06-29T17:19:17.534Z,28.20
2018-06-29T17:21:45.939Z,28.20
2018-06-29T17:24:14.772Z,28.10
2018-06-29T17:26:43.179Z,28.10
2018-06-29T17:29:11.966Z,28.10
2018-06-29T17:31:40.334Z,28.10
2018-06-29T17:34:09.399Z,28.10
2018-06-29T17:36:37.928Z,28.00
2018-06-29T17:39:08.670Z,28.00
2018-06-29T17:41:37.480Z,28.00
2018-06-29T17:44:05.981Z,28.00
2018-06-29T17:46:34.470Z,27.90
2018-06-29T17:49:03.138Z,27.90
2018-06-29T17:51:31.802Z,27.90
2018-06-29T17:54:00.359Z,27.80
2018-06-29T17:56:28.636Z,27.80
2018-06-29T17:58:57.204Z,27.70
2018-06-29T18:01:25.840Z,27.60
2018-06-29T18:03:54.304Z,27.60
2018-06-29T18:06:23.990Z,27.50
2018-06-29T18:08:53.332Z,27.50
2018-06-29T18:11:22.164Z,27.50
2018-06-29T18:13:50.945Z,27.50
2018-06-29T18:16:19.549Z,27.50
2018-06-29T18:18:49.464Z,27.50
2018-06-29T18:21:18.503Z,27.40
2018-06-29T18:23:47.000Z,27.40
2018-06-29T18:26:15.549Z,27.30
2018-06-29T18:28:44.088Z,27.30
2018-06-29T18:31:16.582Z,27.20
2018-06-29T18:33:46.737Z,27.20
2018-06-29T18:36:15.245Z,27.20
2018-06-29T18:38:46.307Z,27.10
2018-06-29T18:41:14.780Z,27.10
2018-06-29T18:43:43.210Z,27.00
2018-06-29T18:46:11.755Z,27.00
2018-06-29T18:48:40.306Z,27.00
2018-06-29T18:51:08.930Z,26.90
2018-06-29T18:53:37.365Z,26.80
2018-06-29T18:56:05.844Z,26.80
2018-06-29T18:58:34.332Z,26.80
2018-06-29T19:01:02.728Z,26.80
2018-06-29T19:03:31.188Z,26.70
2018-06-29T19:05:59.852Z,26.60
2018-06-29T19:08:28.445Z,26.60
2018-06-29T19:10:56.996Z,26.50
2018-06-29T19:13:25.475Z,26.50
2018-06-29T19:15:54.065Z,26.40
2018-06-29T19:18:22.665Z,26.40
2018-06-29T19:20:51.168Z,26.30
2018-06-29T19:23:21.865Z,26.30
2018-06-29T19:25:50.339Z,26.20
2018-06-29T19:28:18.927Z,26.20
2018-06-29T19:30:47.478Z,26.10
2018-06-29T19:33:16.447Z,26.00
2018-06-29T19:35:44.947Z,26.00
2018-06-29T19:38:13.516Z,25.90
2018-06-29T19:40:41.933Z,25.80
2018-06-29T19:43:10.341Z,25.80
2018-06-29T19:45:38.749Z,25.70
2018-06-29T19:48:07.225Z,25.70
2018-06-29T19:50:36.117Z,25.60
2018-06-29T19:53:04.667Z,25.60
2018-06-29T19:55:33.085Z,25.50
2018-06-29T19:58:02.637Z,25.40
2018-06-29T20:00:31.121Z,25.40
2018-06-29T20:02:59.603Z,25.40
2018-06-29T20:05:28.125Z,25.30
2018-06-29T20:07:56.694Z,25.20
2018-06-29T20:10:25.115Z,25.20
2018-06-29T20:12:53.554Z,25.20
2018-06-29T20:15:22.238Z,25.10
2018-06-29T20:17:50.730Z,25.10
2018-06-29T20:20:19.344Z,25.10
2018-06-29T20:22:47.877Z,25.00
2018-06-29T20:25:16.301Z,24.90
2018-06-29T20:27:44.680Z,24.90
2018-06-29T20:30:13.240Z,24.90
2018-06-29T20:32:41.802Z,24.80
2018-06-29T20:35:10.251Z,24.80
2018-06-29T20:37:38.752Z,24.80
2018-06-29T20:40:07.304Z,24.70
2018-06-29T20:42:35.794Z,24.60
2018-06-29T20:45:04.498Z,24.60
2018-06-29T20:47:32.916Z,24.60
2018-06-29T20:50:01.330Z,24.60
2018-06-29T20:52:29.832Z,24.50
2018-06-29T20:54:58.276Z,24.50
2018-06-29T20:57:26.740Z,24.40
2018-06-29T20:59:55.178Z,24.40
2018-06-29T21:02:23.697Z,24.40
2018-06-29T21:04:52.298Z,24.30
2018-06-29T21:07:20.724Z,24.30
2018-06-29T21:09:49.154Z,24.30
2018-06-29T21:12:17.875Z,24.30
2018-06-29T21:14:46.506Z,24.30
2018-06-29T21:17:14.990Z,24.30
2018-06-29T21:19:43.495Z,24.30
2018-06-29T21:22:11.936Z,24.30
2018-06-29T21:24:40.344Z,24.30
2018-06-29T21:27:08.984Z,24.20
2018-06-29T21:29:37.423Z,24.10
2018-06-29T21:32:05.852Z,24.00
2018-06-29T21:34:34.452Z,24.00
2018-06-29T21:37:02.884Z,23.90
2018-06-29T21:39:31.424Z,23.80
2018-06-29T21:41:59.872Z,23.80
2018-06-29T21:44:28.340Z,23.60
2018-06-29T21:46:56.840Z,23.60
2018-06-29T21:49:25.304Z,23.60
2018-06-29T21:51:53.745Z,23.60
2018-06-29T21:54:23.428Z,23.70
2018-06-29T21:56:51.891Z,23.70
2018-06-29T21:59:21.585Z,23.80
2018-06-29T22:01:50.113Z,23.80
2018-06-29T22:04:18.699Z,23.90
2018-06-29T22:06:47.294Z,23.90
2018-06-29T22:09:15.783Z,23.90
2018-06-29T22:11:44.413Z,24.00
2018-06-29T22:14:12.927Z,24.00
2018-06-29T22:16:41.605Z,24.00
2018-06-29T22:19:10.223Z,24.00
2018-06-29T22:24:13.756Z,24.00
2018-06-29T22:26:42.204Z,24.00
2018-06-29T22:29:10.659Z,24.00
2018-06-29T22:31:39.115Z,23.90
2018-06-29T22:34:07.643Z,24.00
2018-06-29T22:36:36.103Z,23.90
2018-06-29T22:39:07.779Z,23.90
2018-06-29T22:41:36.217Z,23.80
2018-06-29T22:44:04.826Z,23.80
2018-06-29T22:46:33.305Z,23.80
2018-06-29T22:49:01.953Z,23.80
2018-06-29T22:51:30.431Z,23.70
2018-06-29T22:53:58.885Z,23.50
2018-06-29T22:56:27.293Z,23.40
2018-06-29T22:58:55.780Z,23.30
2018-06-29T23:01:24.320Z,23.30
2018-06-29T23:03:53.629Z,23.20
2018-06-29T23:06:22.861Z,23.20
2018-06-29T23:08:51.581Z,23.10
2018-06-29T23:11:20.173Z,23.10
2018-06-29T23:13:49.402Z,23.10
2018-06-29T23:16:18.346Z,23.00
2018-06-29T23:18:47.423Z,23.00
2018-06-29T23:21:15.880Z,23.00
2018-06-29T23:23:44.797Z,22.90
2018-06-29T23:26:13.225Z,22.90
2018-06-29T23:28:41.769Z,22.80
2018-06-29T23:31:10.322Z,22.80
2018-06-29T23:33:38.753Z,22.80
2018-06-29T23:36:07.161Z,22.70
2018-06-29T23:38:37.701Z,22.70
2018-06-29T23:41:06.305Z,22.70
2018-06-29T23:43:34.740Z,22.70
2018-06-29T23:46:03.611Z,22.70
2018-06-29T23:48:32.029Z,22.70
2018-06-29T23:51:00.511Z,22.70
2018-06-29T23:53:28.997Z,22.50
2018-06-29T23:56:01.408Z,22.40
2018-06-29T23:58:29.843Z,22.40
